sensor_id;sensor_type;location;lat;lon;timestamp;P1;durP1;ratioP1;P2;durP2;ratioP2
26303;SDS011;70693;48.680;8.890;2023-07-24T00:00:29;5.68;;;4.78;;
26303;SDS011;70693;48.680;8.890;2023-07-24T00:02:55;5.35;;;4.28;;
26303;SDS011;70693;48.680;8.890;2023-07-24T00:05:21;5.47;;;4.57;;
26303;SDS011;70693;48.680;8.890;2023-07-24T00:07:47;6.00;;;4.57;;
26303;SDS011;70693;48.680;8.890;2023-07-24T00:10:12;5.68;;;4.80;;
26303;SDS011;70693;48.680;8.890;2023-07-24T00:12:38;5.57;;;4.30;;
26303;SDS011;70693;48.680;8.890;2023-07-24T00:15:04;6.13;;;4.43;;
26303;SDS011;70693;48.680;8.890;2023-07-24T00:17:30;5.85;;;4.82;;
26303;SDS011;70693;48.680;8.890;2023-07-24T00:19:55;7.05;;;4.93;;
26303;SDS011;70693;48.680;8.890;2023-07-24T00:22:21;6.10;;;4.57;;
26303;SDS011;70693;48.680;8.890;2023-07-24T00:24:47;6.40;;;4.70;;
26303;SDS011;70693;48.680;8.890;2023-07-24T00:27:12;6.07;;;4.40;;
26303;SDS011;70693;48.680;8.890;2023-07-24T00:29:39;5.55;;;4.30;;
26303;SDS011;70693;48.680;8.890;2023-07-24T00:32:04;6.45;;;4.97;;
26303;SDS011;70693;48.680;8.890;2023-07-24T00:34:30;6.70;;;5.03;;
26303;SDS011;70693;48.680;8.890;2023-07-24T00:36:56;8.35;;;5.20;;
26303;SDS011;70693;48.680;8.890;2023-07-24T00:39:21;6.03;;;4.85;;
26303;SDS011;70693;48.680;8.890;2023-07-24T00:41:47;6.35;;;4.55;;
26303;SDS011;70693;48.680;8.890;2023-07-24T00:44:13;6.18;;;5.05;;
26303;SDS011;70693;48.680;8.890;2023-07-24T00:46:38;5.07;;;4.07;;
26303;SDS011;70693;48.680;8.890;2023-07-24T00:49:04;6.60;;;5.03;;
26303;SDS011;70693;48.680;8.890;2023-07-24T00:51:30;5.25;;;4.32;;
26303;SDS011;70693;48.680;8.890;2023-07-24T00:53:58;5.45;;;4.35;;
26303;SDS011;70693;48.680;8.890;2023-07-24T00:56:26;5.88;;;4.47;;
26303;SDS011;70693;48.680;8.890;2023-07-24T00:58:52;7.43;;;4.85;;
26303;SDS011;70693;48.680;8.890;2023-07-24T01:01:20;6.40;;;4.75;;
26303;SDS011;70693;48.680;8.890;2023-07-24T01:03:47;6.45;;;4.80;;
26303;SDS011;70693;48.680;8.890;2023-07-24T01:06:14;6.65;;;4.82;;
26303;SDS011;70693;48.680;8.890;2023-07-24T01:08:39;6.25;;;4.57;;
26303;SDS011;70693;48.680;8.890;2023-07-24T01:13:37;5.65;;;4.45;;
26303;SDS011;70693;48.680;8.890;2023-07-24T01:16:09;6.50;;;5.03;;
26303;SDS011;70693;48.680;8.890;2023-07-24T01:18:39;5.40;;;4.60;;
26303;SDS011;70693;48.680;8.890;2023-07-24T01:21:05;6.40;;;4.75;;
26303;SDS011;70693;48.680;8.890;2023-07-24T01:23:55;7.00;;;4.50;;
26303;SDS011;70693;48.680;8.890;2023-07-24T01:26:30;5.65;;;4.30;;
26303;SDS011;70693;48.680;8.890;2023-07-24T01:28:56;5.70;;;4.45;;
26303;SDS011;70693;48.680;8.890;2023-07-24T01:31:22;5.28;;;4.10;;
26303;SDS011;70693;48.680;8.890;2023-07-24T01:33:47;5.85;;;4.40;;
26303;SDS011;70693;48.680;8.890;2023-07-24T01:36:13;5.90;;;4.15;;
26303;SDS011;70693;48.680;8.890;2023-07-24T01:38:40;6.45;;;4.50;;
26303;SDS011;70693;48.680;8.890;2023-07-24T01:41:06;6.03;;;4.47;;
26303;SDS011;70693;48.680;8.890;2023-07-24T01:43:32;6.70;;;4.65;;
26303;SDS011;70693;48.680;8.890;2023-07-24T01:45:59;6.60;;;4.10;;
26303;SDS011;70693;48.680;8.890;2023-07-24T01:48:24;5.90;;;4.57;;
26303;SDS011;70693;48.680;8.890;2023-07-24T01:50:50;6.63;;;4.97;;
26303;SDS011;70693;48.680;8.890;2023-07-24T01:53:16;5.68;;;4.55;;
26303;SDS011;70693;48.680;8.890;2023-07-24T01:55:41;5.95;;;4.80;;
26303;SDS011;70693;48.680;8.890;2023-07-24T01:58:07;6.40;;;4.72;;
26303;SDS011;70693;48.680;8.890;2023-07-24T02:00:33;6.25;;;4.50;;
26303;SDS011;70693;48.680;8.890;2023-07-24T02:02:58;6.43;;;4.97;;
26303;SDS011;70693;48.680;8.890;2023-07-24T02:05:25;8.30;;;5.40;;
26303;SDS011;70693;48.680;8.890;2023-07-24T02:07:51;5.43;;;4.45;;
26303;SDS011;70693;48.680;8.890;2023-07-24T02:10:17;7.18;;;5.32;;
26303;SDS011;70693;48.680;8.890;2023-07-24T02:12:42;5.93;;;4.72;;
26303;SDS011;70693;48.680;8.890;2023-07-24T02:15:08;6.95;;;4.88;;
26303;SDS011;70693;48.680;8.890;2023-07-24T02:17:34;5.78;;;4.63;;
26303;SDS011;70693;48.680;8.890;2023-07-24T02:20:00;5.95;;;4.65;;
26303;SDS011;70693;48.680;8.890;2023-07-24T02:22:26;5.75;;;4.60;;
26303;SDS011;70693;48.680;8.890;2023-07-24T02:24:51;6.43;;;4.45;;
26303;SDS011;70693;48.680;8.890;2023-07-24T02:27:27;5.50;;;4.40;;
26303;SDS011;70693;48.680;8.890;2023-07-24T02:29:57;6.85;;;5.20;;
26303;SDS011;70693;48.680;8.890;2023-07-24T02:32:22;6.18;;;4.43;;
26303;SDS011;70693;48.680;8.890;2023-07-24T02:34:49;6.55;;;4.85;;
26303;SDS011;70693;48.680;8.890;2023-07-24T02:37:15;6.05;;;4.60;;
26303;SDS011;70693;48.680;8.890;2023-07-24T02:39:41;6.07;;;4.93;;
26303;SDS011;70693;48.680;8.890;2023-07-24T02:42:06;6.50;;;5.00;;
26303;SDS011;70693;48.680;8.890;2023-07-24T02:44:33;5.40;;;4.40;;
26303;SDS011;70693;48.680;8.890;2023-07-24T02:46:59;7.20;;;5.35;;
26303;SDS011;70693;48.680;8.890;2023-07-24T02:49:25;6.90;;;5.13;;
26303;SDS011;70693;48.680;8.890;2023-07-24T02:51:50;6.18;;;5.00;;
26303;SDS011;70693;48.680;8.890;2023-07-24T02:54:16;6.47;;;5.05;;
26303;SDS011;70693;48.680;8.890;2023-07-24T02:56:41;6.13;;;4.88;;
26303;SDS011;70693;48.680;8.890;2023-07-24T02:59:07;5.85;;;4.70;;
26303;SDS011;70693;48.680;8.890;2023-07-24T03:01:33;6.53;;;4.90;;
26303;SDS011;70693;48.680;8.890;2023-07-24T03:03:58;6.72;;;4.95;;
26303;SDS011;70693;48.680;8.890;2023-07-24T03:06:25;6.25;;;4.70;;
26303;SDS011;70693;48.680;8.890;2023-07-24T03:08:50;6.28;;;4.70;;
26303;SDS011;70693;48.680;8.890;2023-07-24T03:11:16;6.70;;;5.13;;
26303;SDS011;70693;48.680;8.890;2023-07-24T03:13:42;6.53;;;5.28;;
26303;SDS011;70693;48.680;8.890;2023-07-24T03:16:08;7.13;;;5.03;;
26303;SDS011;70693;48.680;8.890;2023-07-24T03:18:33;5.75;;;4.75;;
26303;SDS011;70693;48.680;8.890;2023-07-24T03:20:59;7.43;;;5.30;;
26303;SDS011;70693;48.680;8.890;2023-07-24T03:23:25;6.38;;;4.90;;
26303;SDS011;70693;48.680;8.890;2023-07-24T03:25:51;7.15;;;5.03;;
26303;SDS011;70693;48.680;8.890;2023-07-24T03:28:16;6.63;;;4.95;;
26303;SDS011;70693;48.680;8.890;2023-07-24T03:30:42;6.22;;;4.75;;
26303;SDS011;70693;48.680;8.890;2023-07-24T03:33:08;7.20;;;4.88;;
26303;SDS011;70693;48.680;8.890;2023-07-24T03:35:33;6.38;;;4.97;;
26303;SDS011;70693;48.680;8.890;2023-07-24T03:37:59;7.55;;;4.97;;
26303;SDS011;70693;48.680;8.890;2023-07-24T03:40:25;5.85;;;4.80;;
26303;SDS011;70693;48.680;8.890;2023-07-24T03:42:51;8.45;;;5.05;;
26303;SDS011;70693;48.680;8.890;2023-07-24T03:45:16;6.90;;;5.28;;
26303;SDS011;70693;48.680;8.890;2023-07-24T03:47:42;6.63;;;4.78;;
26303;SDS011;70693;48.680;8.890;2023-07-24T03:50:08;6.07;;;4.75;;
26303;SDS011;70693;48.680;8.890;2023-07-24T03:52:34;6.60;;;4.82;;
26303;SDS011;70693;48.680;8.890;2023-07-24T03:54:59;6.80;;;5.18;;
26303;SDS011;70693;48.680;8.890;2023-07-24T03:57:25;6.63;;;4.82;;
26303;SDS011;70693;48.680;8.890;2023-07-24T03:59:50;6.22;;;5.10;;
26303;SDS011;70693;48.680;8.890;2023-07-24T04:02:16;9.10;;;5.03;;
26303;SDS011;70693;48.680;8.890;2023-07-24T04:04:42;7.70;;;5.03;;
26303;SDS011;70693;48.680;8.890;2023-07-24T04:07:07;8.55;;;5.60;;
26303;SDS011;70693;48.680;8.890;2023-07-24T04:09:33;7.93;;;5.47;;
26303;SDS011;70693;48.680;8.890;2023-07-24T04:11:58;6.90;;;4.97;;
26303;SDS011;70693;48.680;8.890;2023-07-24T04:14:25;6.90;;;5.03;;
26303;SDS011;70693;48.680;8.890;2023-07-24T04:16:51;6.10;;;4.70;;
26303;SDS011;70693;48.680;8.890;2023-07-24T04:19:17;6.25;;;4.82;;
26303;SDS011;70693;48.680;8.890;2023-07-24T04:21:44;7.18;;;5.03;;
26303;SDS011;70693;48.680;8.890;2023-07-24T04:24:09;6.68;;;5.05;;
26303;SDS011;70693;48.680;8.890;2023-07-24T04:26:35;7.03;;;5.20;;
26303;SDS011;70693;48.680;8.890;2023-07-24T04:29:01;6.90;;;5.28;;
26303;SDS011;70693;48.680;8.890;2023-07-24T04:31:26;7.82;;;5.43;;
26303;SDS011;70693;48.680;8.890;2023-07-24T04:33:52;7.18;;;5.07;;
26303;SDS011;70693;48.680;8.890;2023-07-24T04:36:17;6.25;;;5.00;;
26303;SDS011;70693;48.680;8.890;2023-07-24T04:38:43;7.38;;;5.15;;
26303;SDS011;70693;48.680;8.890;2023-07-24T04:41:08;6.90;;;5.03;;
26303;SDS011;70693;48.680;8.890;2023-07-24T04:43:34;7.47;;;5.00;;
26303;SDS011;70693;48.680;8.890;2023-07-24T04:46:00;7.53;;;5.10;;
26303;SDS011;70693;48.680;8.890;2023-07-24T04:48:25;7.28;;;5.72;;
26303;SDS011;70693;48.680;8.890;2023-07-24T04:50:54;7.07;;;5.07;;
26303;SDS011;70693;48.680;8.890;2023-07-24T04:53:21;7.50;;;4.72;;
26303;SDS011;70693;48.680;8.890;2023-07-24T04:55:47;6.50;;;4.93;;
26303;SDS011;70693;48.680;8.890;2023-07-24T04:58:13;6.60;;;5.00;;
26303;SDS011;70693;48.680;8.890;2023-07-24T05:00:38;6.65;;;4.75;;
26303;SDS011;70693;48.680;8.890;2023-07-24T05:03:04;8.50;;;5.22;;
26303;SDS011;70693;48.680;8.890;2023-07-24T05:05:31;8.48;;;5.40;;
26303;SDS011;70693;48.680;8.890;2023-07-24T05:07:57;6.65;;;4.90;;
26303;SDS011;70693;48.680;8.890;2023-07-24T05:10:22;6.88;;;5.13;;
26303;SDS011;70693;48.680;8.890;2023-07-24T05:12:48;7.47;;;5.10;;
26303;SDS011;70693;48.680;8.890;2023-07-24T05:15:14;6.32;;;5.07;;
26303;SDS011;70693;48.680;8.890;2023-07-24T05:17:42;8.38;;;5.25;;
26303;SDS011;70693;48.680;8.890;2023-07-24T05:20:10;7.75;;;5.20;;
26303;SDS011;70693;48.680;8.890;2023-07-24T05:22:36;8.30;;;5.03;;
26303;SDS011;70693;48.680;8.890;2023-07-24T05:25:02;6.78;;;5.40;;
26303;SDS011;70693;48.680;8.890;2023-07-24T05:27:27;6.88;;;5.22;;
26303;SDS011;70693;48.680;8.890;2023-07-24T05:29:54;7.18;;;5.20;;
26303;SDS011;70693;48.680;8.890;2023-07-24T05:32:20;6.47;;;4.95;;
26303;SDS011;70693;48.680;8.890;2023-07-24T05:34:46;7.65;;;5.57;;
26303;SDS011;70693;48.680;8.890;2023-07-24T05:37:11;7.03;;;4.95;;
26303;SDS011;70693;48.680;8.890;2023-07-24T05:39:37;7.28;;;5.30;;
26303;SDS011;70693;48.680;8.890;2023-07-24T05:42:02;6.43;;;5.05;;
26303;SDS011;70693;48.680;8.890;2023-07-24T05:44:28;7.88;;;5.60;;
26303;SDS011;70693;48.680;8.890;2023-07-24T05:46:54;6.65;;;5.70;;
26303;SDS011;70693;48.680;8.890;2023-07-24T05:49:19;6.72;;;5.45;;
26303;SDS011;70693;48.680;8.890;2023-07-24T05:51:45;7.90;;;5.05;;
26303;SDS011;70693;48.680;8.890;2023-07-24T05:54:11;8.27;;;5.38;;
26303;SDS011;70693;48.680;8.890;2023-07-24T05:56:36;6.97;;;5.25;;
26303;SDS011;70693;48.680;8.890;2023-07-24T05:59:02;9.38;;;5.40;;
26303;SDS011;70693;48.680;8.890;2023-07-24T06:01:27;15.00;;;5.30;;
26303;SDS011;70693;48.680;8.890;2023-07-24T06:03:53;6.70;;;5.32;;
26303;SDS011;70693;48.680;8.890;2023-07-24T06:06:18;7.63;;;5.32;;
26303;SDS011;70693;48.680;8.890;2023-07-24T06:08:44;9.20;;;5.55;;
26303;SDS011;70693;48.680;8.890;2023-07-24T06:11:10;7.45;;;5.80;;
26303;SDS011;70693;48.680;8.890;2023-07-24T06:13:35;7.40;;;5.50;;
26303;SDS011;70693;48.680;8.890;2023-07-24T06:16:01;9.63;;;5.72;;
26303;SDS011;70693;48.680;8.890;2023-07-24T06:18:26;6.78;;;5.10;;
26303;SDS011;70693;48.680;8.890;2023-07-24T06:20:52;7.28;;;5.40;;
26303;SDS011;70693;48.680;8.890;2023-07-24T06:23:18;8.95;;;5.28;;
26303;SDS011;70693;48.680;8.890;2023-07-24T06:25:44;7.72;;;5.22;;
26303;SDS011;70693;48.680;8.890;2023-07-24T06:28:09;10.60;;;5.85;;
26303;SDS011;70693;48.680;8.890;2023-07-24T06:30:35;8.27;;;5.63;;
26303;SDS011;70693;48.680;8.890;2023-07-24T06:33:02;7.13;;;5.15;;
26303;SDS011;70693;48.680;8.890;2023-07-24T06:35:28;7.30;;;5.30;;
26303;SDS011;70693;48.680;8.890;2023-07-24T06:37:54;8.65;;;5.38;;
26303;SDS011;70693;48.680;8.890;2023-07-24T06:40:20;7.97;;;5.20;;
26303;SDS011;70693;48.680;8.890;2023-07-24T06:42:45;6.95;;;5.07;;
26303;SDS011;70693;48.680;8.890;2023-07-24T06:45:11;7.85;;;5.95;;
26303;SDS011;70693;48.680;8.890;2023-07-24T06:47:37;7.07;;;5.03;;
26303;SDS011;70693;48.680;8.890;2023-07-24T06:50:03;7.38;;;5.57;;
26303;SDS011;70693;48.680;8.890;2023-07-24T06:52:30;7.20;;;5.45;;
26303;SDS011;70693;48.680;8.890;2023-07-24T06:54:56;6.80;;;5.18;;
26303;SDS011;70693;48.680;8.890;2023-07-24T06:57:27;7.20;;;5.38;;
26303;SDS011;70693;48.680;8.890;2023-07-24T06:59:52;7.10;;;5.30;;
26303;SDS011;70693;48.680;8.890;2023-07-24T07:02:18;6.95;;;4.97;;
26303;SDS011;70693;48.680;8.890;2023-07-24T07:04:43;9.85;;;5.30;;
26303;SDS011;70693;48.680;8.890;2023-07-24T07:07:09;7.13;;;5.00;;
26303;SDS011;70693;48.680;8.890;2023-07-24T07:09:35;8.38;;;5.30;;
26303;SDS011;70693;48.680;8.890;2023-07-24T07:12:00;6.45;;;4.88;;
26303;SDS011;70693;48.680;8.890;2023-07-24T07:14:26;7.80;;;4.95;;
26303;SDS011;70693;48.680;8.890;2023-07-24T07:16:52;6.40;;;4.90;;
26303;SDS011;70693;48.680;8.890;2023-07-24T07:19:17;8.23;;;5.10;;
26303;SDS011;70693;48.680;8.890;2023-07-24T07:21:43;7.13;;;5.00;;
26303;SDS011;70693;48.680;8.890;2023-07-24T07:24:08;7.65;;;5.50;;
26303;SDS011;70693;48.680;8.890;2023-07-24T07:26:34;6.63;;;4.93;;
26303;SDS011;70693;48.680;8.890;2023-07-24T07:28:59;7.13;;;5.10;;
26303;SDS011;70693;48.680;8.890;2023-07-24T07:31:25;8.82;;;4.85;;
26303;SDS011;70693;48.680;8.890;2023-07-24T07:33:51;6.25;;;4.82;;
26303;SDS011;70693;48.680;8.890;2023-07-24T07:36:16;5.80;;;4.75;;
26303;SDS011;70693;48.680;8.890;2023-07-24T07:38:47;8.82;;;5.90;;
26303;SDS011;70693;48.680;8.890;2023-07-24T07:41:13;8.02;;;5.60;;
26303;SDS011;70693;48.680;8.890;2023-07-24T07:43:38;6.25;;;5.03;;
26303;SDS011;70693;48.680;8.890;2023-07-24T07:46:04;7.60;;;5.30;;
26303;SDS011;70693;48.680;8.890;2023-07-24T07:48:29;6.68;;;5.15;;
26303;SDS011;70693;48.680;8.890;2023-07-24T07:50:55;8.13;;;5.70;;
26303;SDS011;70693;48.680;8.890;2023-07-24T07:53:21;7.07;;;5.45;;
26303;SDS011;70693;48.680;8.890;2023-07-24T07:55:54;7.97;;;5.25;;
26303;SDS011;70693;48.680;8.890;2023-07-24T07:58:20;6.30;;;4.82;;
26303;SDS011;70693;48.680;8.890;2023-07-24T08:00:46;10.02;;;5.80;;
26303;SDS011;70693;48.680;8.890;2023-07-24T08:03:11;7.63;;;5.65;;
26303;SDS011;70693;48.680;8.890;2023-07-24T08:05:37;7.00;;;5.13;;
26303;SDS011;70693;48.680;8.890;2023-07-24T08:08:03;8.10;;;6.13;;
26303;SDS011;70693;48.680;8.890;2023-07-24T08:10:29;8.70;;;5.68;;
26303;SDS011;70693;48.680;8.890;2023-07-24T08:12:54;6.82;;;5.30;;
26303;SDS011;70693;48.680;8.890;2023-07-24T08:15:20;8.25;;;5.90;;
26303;SDS011;70693;48.680;8.890;2023-07-24T08:17:45;7.88;;;5.53;;
26303;SDS011;70693;48.680;8.890;2023-07-24T08:20:11;9.23;;;5.75;;
26303;SDS011;70693;48.680;8.890;2023-07-24T08:22:37;6.97;;;5.45;;
26303;SDS011;70693;48.680;8.890;2023-07-24T08:25:02;10.18;;;5.30;;
26303;SDS011;70693;48.680;8.890;2023-07-24T08:27:28;7.43;;;5.50;;
26303;SDS011;70693;48.680;8.890;2023-07-24T08:29:54;10.65;;;5.40;;
26303;SDS011;70693;48.680;8.890;2023-07-24T08:32:20;6.72;;;5.38;;
26303;SDS011;70693;48.680;8.890;2023-07-24T08:34:45;7.47;;;5.10;;
26303;SDS011;70693;48.680;8.890;2023-07-24T08:37:11;7.32;;;5.15;;
26303;SDS011;70693;48.680;8.890;2023-07-24T08:39:37;7.75;;;5.35;;
26303;SDS011;70693;48.680;8.890;2023-07-24T08:42:12;7.82;;;5.43;;
26303;SDS011;70693;48.680;8.890;2023-07-24T08:44:39;6.93;;;5.20;;
26303;SDS011;70693;48.680;8.890;2023-07-24T08:47:06;6.85;;;5.03;;
26303;SDS011;70693;48.680;8.890;2023-07-24T08:49:35;7.85;;;5.30;;
26303;SDS011;70693;48.680;8.890;2023-07-24T08:52:03;8.25;;;5.40;;
26303;SDS011;70693;48.680;8.890;2023-07-24T08:54:31;7.03;;;5.40;;
26303;SDS011;70693;48.680;8.890;2023-07-24T08:57:00;9.63;;;4.97;;
26303;SDS011;70693;48.680;8.890;2023-07-24T08:59:27;7.75;;;5.20;;
26303;SDS011;70693;48.680;8.890;2023-07-24T09:01:53;7.05;;;5.20;;
26303;SDS011;70693;48.680;8.890;2023-07-24T09:04:19;7.90;;;5.13;;
26303;SDS011;70693;48.680;8.890;2023-07-24T09:06:47;7.15;;;5.10;;
26303;SDS011;70693;48.680;8.890;2023-07-24T09:09:14;8.45;;;5.60;;
26303;SDS011;70693;48.680;8.890;2023-07-24T09:11:50;7.10;;;4.40;;
26303;SDS011;70693;48.680;8.890;2023-07-24T09:14:24;7.20;;;5.15;;
26303;SDS011;70693;48.680;8.890;2023-07-24T09:19:29;7.30;;;4.60;;
26303;SDS011;70693;48.680;8.890;2023-07-24T09:21:55;6.15;;;4.97;;
26303;SDS011;70693;48.680;8.890;2023-07-24T09:24:21;8.80;;;5.30;;
26303;SDS011;70693;48.680;8.890;2023-07-24T09:26:55;6.50;;;4.57;;
26303;SDS011;70693;48.680;8.890;2023-07-24T09:29:21;9.77;;;4.90;;
26303;SDS011;70693;48.680;8.890;2023-07-24T09:31:47;8.93;;;4.68;;
26303;SDS011;70693;48.680;8.890;2023-07-24T09:34:16;6.03;;;4.80;;
26303;SDS011;70693;48.680;8.890;2023-07-24T09:36:42;6.18;;;4.70;;
26303;SDS011;70693;48.680;8.890;2023-07-24T09:39:09;6.13;;;5.10;;
26303;SDS011;70693;48.680;8.890;2023-07-24T09:41:36;7.40;;;5.10;;
26303;SDS011;70693;48.680;8.890;2023-07-24T09:44:03;6.70;;;4.85;;
26303;SDS011;70693;48.680;8.890;2023-07-24T09:46:29;7.20;;;5.03;;
26303;SDS011;70693;48.680;8.890;2023-07-24T09:48:56;7.03;;;4.95;;
26303;SDS011;70693;48.680;8.890;2023-07-24T09:51:23;5.82;;;4.45;;
26303;SDS011;70693;48.680;8.890;2023-07-24T09:56:14;7.38;;;4.70;;
26303;SDS011;70693;48.680;8.890;2023-07-24T09:58:43;7.03;;;4.90;;
26303;SDS011;70693;48.680;8.890;2023-07-24T10:01:10;6.32;;;4.75;;
26303;SDS011;70693;48.680;8.890;2023-07-24T10:03:38;6.90;;;5.13;;
26303;SDS011;70693;48.680;8.890;2023-07-24T10:06:14;6.15;;;4.68;;
26303;SDS011;70693;48.680;8.890;2023-07-24T10:08:44;7.18;;;5.28;;
26303;SDS011;70693;48.680;8.890;2023-07-24T10:11:11;5.90;;;4.43;;
26303;SDS011;70693;48.680;8.890;2023-07-24T10:13:37;7.35;;;4.97;;
26303;SDS011;70693;48.680;8.890;2023-07-24T10:16:04;6.30;;;4.95;;
26303;SDS011;70693;48.680;8.890;2023-07-24T10:18:32;7.75;;;5.13;;
26303;SDS011;70693;48.680;8.890;2023-07-24T10:21:07;6.25;;;4.43;;
26303;SDS011;70693;48.680;8.890;2023-07-24T10:23:34;6.63;;;4.75;;
26303;SDS011;70693;48.680;8.890;2023-07-24T10:26:04;7.20;;;4.57;;
26303;SDS011;70693;48.680;8.890;2023-07-24T10:28:31;9.27;;;5.10;;
26303;SDS011;70693;48.680;8.890;2023-07-24T10:30:58;7.45;;;4.55;;
26303;SDS011;70693;48.680;8.890;2023-07-24T10:33:28;7.13;;;4.88;;
26303;SDS011;70693;48.680;8.890;2023-07-24T10:36:03;6.82;;;4.63;;
26303;SDS011;70693;48.680;8.890;2023-07-24T10:38:36;8.00;;;5.03;;
26303;SDS011;70693;48.680;8.890;2023-07-24T10:41:03;7.15;;;4.88;;
26303;SDS011;70693;48.680;8.890;2023-07-24T10:43:47;7.30;;;4.65;;
26303;SDS011;70693;48.680;8.890;2023-07-24T10:46:13;10.10;;;4.97;;
26303;SDS011;70693;48.680;8.890;2023-07-24T10:49:00;7.07;;;4.88;;
26303;SDS011;70693;48.680;8.890;2023-07-24T10:51:27;6.15;;;4.53;;
26303;SDS011;70693;48.680;8.890;2023-07-24T10:53:53;7.20;;;4.72;;
26303;SDS011;70693;48.680;8.890;2023-07-24T10:56:19;6.50;;;4.40;;
26303;SDS011;70693;48.680;8.890;2023-07-24T10:58:45;8.77;;;5.00;;
26303;SDS011;70693;48.680;8.890;2023-07-24T11:01:10;8.10;;;4.57;;
26303;SDS011;70693;48.680;8.890;2023-07-24T11:03:37;8.80;;;4.82;;
26303;SDS011;70693;48.680;8.890;2023-07-24T11:06:04;8.75;;;5.07;;
26303;SDS011;70693;48.680;8.890;2023-07-24T11:08:30;7.85;;;4.38;;
26303;SDS011;70693;48.680;8.890;2023-07-24T11:10:57;6.65;;;4.57;;
26303;SDS011;70693;48.680;8.890;2023-07-24T11:13:26;7.55;;;4.00;;
26303;SDS011;70693;48.680;8.890;2023-07-24T11:15:53;5.95;;;4.28;;
26303;SDS011;70693;48.680;8.890;2023-07-24T11:18:19;6.78;;;4.43;;
26303;SDS011;70693;48.680;8.890;2023-07-24T11:20:51;7.15;;;5.05;;
26303;SDS011;70693;48.680;8.890;2023-07-24T11:23:20;5.05;;;4.13;;
26303;SDS011;70693;48.680;8.890;2023-07-24T11:25:47;7.25;;;4.53;;
26303;SDS011;70693;48.680;8.890;2023-07-24T11:28:16;8.02;;;4.80;;
26303;SDS011;70693;48.680;8.890;2023-07-24T11:30:42;8.60;;;4.97;;
26303;SDS011;70693;48.680;8.890;2023-07-24T11:33:10;7.22;;;4.43;;
26303;SDS011;70693;48.680;8.890;2023-07-24T11:35:39;5.18;;;4.05;;
26303;SDS011;70693;48.680;8.890;2023-07-24T11:38:06;6.75;;;4.60;;
26303;SDS011;70693;48.680;8.890;2023-07-24T11:40:41;6.90;;;3.95;;
26303;SDS011;70693;48.680;8.890;2023-07-24T11:43:15;7.03;;;4.50;;
26303;SDS011;70693;48.680;8.890;2023-07-24T11:45:43;6.45;;;4.38;;
26303;SDS011;70693;48.680;8.890;2023-07-24T11:48:10;6.90;;;4.85;;
26303;SDS011;70693;48.680;8.890;2023-07-24T11:50:46;7.85;;;5.07;;
26303;SDS011;70693;48.680;8.890;2023-07-24T11:53:20;6.97;;;4.80;;
26303;SDS011;70693;48.680;8.890;2023-07-24T11:55:56;6.70;;;4.63;;
26303;SDS011;70693;48.680;8.890;2023-07-24T11:58:26;6.88;;;4.50;;
26303;SDS011;70693;48.680;8.890;2023-07-24T12:00:53;6.80;;;4.25;;
26303;SDS011;70693;48.680;8.890;2023-07-24T12:03:19;8.23;;;4.68;;
26303;SDS011;70693;48.680;8.890;2023-07-24T12:05:46;5.72;;;4.47;;
26303;SDS011;70693;48.680;8.890;2023-07-24T12:08:12;6.38;;;4.43;;
26303;SDS011;70693;48.680;8.890;2023-07-24T12:10:39;6.00;;;4.43;;
26303;SDS011;70693;48.680;8.890;2023-07-24T12:13:05;5.78;;;4.28;;
26303;SDS011;70693;48.680;8.890;2023-07-24T12:15:32;5.40;;;4.20;;
26303;SDS011;70693;48.680;8.890;2023-07-24T12:17:59;6.45;;;4.47;;
26303;SDS011;70693;48.680;8.890;2023-07-24T12:20:26;7.93;;;4.95;;
26303;SDS011;70693;48.680;8.890;2023-07-24T12:22:52;6.15;;;4.72;;
26303;SDS011;70693;48.680;8.890;2023-07-24T12:25:18;6.28;;;4.57;;
26303;SDS011;70693;48.680;8.890;2023-07-24T12:27:45;5.88;;;4.25;;
26303;SDS011;70693;48.680;8.890;2023-07-24T12:30:13;5.68;;;4.32;;
26303;SDS011;70693;48.680;8.890;2023-07-24T12:32:39;8.48;;;4.25;;
26303;SDS011;70693;48.680;8.890;2023-07-24T12:35:06;6.95;;;4.75;;
26303;SDS011;70693;48.680;8.890;2023-07-24T12:37:33;7.22;;;4.75;;
26303;SDS011;70693;48.680;8.890;2023-07-24T12:39:59;7.43;;;4.90;;
26303;SDS011;70693;48.680;8.890;2023-07-24T12:42:46;6.68;;;5.05;;
26303;SDS011;70693;48.680;8.890;2023-07-24T12:45:14;7.97;;;4.75;;
26303;SDS011;70693;48.680;8.890;2023-07-24T12:47:40;7.43;;;4.72;;
26303;SDS011;70693;48.680;8.890;2023-07-24T12:50:05;6.38;;;4.25;;
26303;SDS011;70693;48.680;8.890;2023-07-24T12:52:31;7.70;;;4.32;;
26303;SDS011;70693;48.680;8.890;2023-07-24T12:54:57;6.15;;;4.35;;
26303;SDS011;70693;48.680;8.890;2023-07-24T12:57:22;4.88;;;3.95;;
26303;SDS011;70693;48.680;8.890;2023-07-24T12:59:48;5.20;;;4.30;;
26303;SDS011;70693;48.680;8.890;2023-07-24T13:02:14;7.38;;;4.43;;
26303;SDS011;70693;48.680;8.890;2023-07-24T13:04:39;5.47;;;4.07;;
26303;SDS011;70693;48.680;8.890;2023-07-24T13:07:05;6.28;;;3.95;;
26303;SDS011;70693;48.680;8.890;2023-07-24T13:09:31;6.22;;;4.57;;
26303;SDS011;70693;48.680;8.890;2023-07-24T13:11:56;5.47;;;4.28;;
26303;SDS011;70693;48.680;8.890;2023-07-24T13:14:22;5.55;;;4.03;;
26303;SDS011;70693;48.680;8.890;2023-07-24T13:16:48;5.57;;;4.18;;
26303;SDS011;70693;48.680;8.890;2023-07-24T13:19:15;5.45;;;4.03;;
26303;SDS011;70693;48.680;8.890;2023-07-24T13:21:40;5.63;;;4.25;;
26303;SDS011;70693;48.680;8.890;2023-07-24T13:24:08;5.05;;;3.95;;
26303;SDS011;70693;48.680;8.890;2023-07-24T13:26:34;6.43;;;4.20;;
26303;SDS011;70693;48.680;8.890;2023-07-24T13:29:00;6.30;;;4.60;;
26303;SDS011;70693;48.680;8.890;2023-07-24T13:31:27;5.63;;;4.15;;
26303;SDS011;70693;48.680;8.890;2023-07-24T13:33:54;4.70;;;3.70;;
26303;SDS011;70693;48.680;8.890;2023-07-24T13:36:19;6.97;;;4.57;;
26303;SDS011;70693;48.680;8.890;2023-07-24T13:38:45;5.45;;;4.25;;
26303;SDS011;70693;48.680;8.890;2023-07-24T13:41:10;6.93;;;4.57;;
26303;SDS011;70693;48.680;8.890;2023-07-24T13:43:36;5.72;;;4.18;;
26303;SDS011;70693;48.680;8.890;2023-07-24T13:46:02;5.93;;;4.20;;
26303;SDS011;70693;48.680;8.890;2023-07-24T13:48:28;4.88;;;3.90;;
26303;SDS011;70693;48.680;8.890;2023-07-24T13:50:54;6.18;;;4.10;;
26303;SDS011;70693;48.680;8.890;2023-07-24T13:53:21;4.65;;;3.47;;
26303;SDS011;70693;48.680;8.890;2023-07-24T13:55:47;5.28;;;3.88;;
26303;SDS011;70693;48.680;8.890;2023-07-24T13:58:15;5.38;;;4.13;;
26303;SDS011;70693;48.680;8.890;2023-07-24T14:00:40;5.70;;;4.05;;
26303;SDS011;70693;48.680;8.890;2023-07-24T14:03:06;6.03;;;4.50;;
26303;SDS011;70693;48.680;8.890;2023-07-24T14:05:32;4.75;;;4.00;;
26303;SDS011;70693;48.680;8.890;2023-07-24T14:07:58;4.93;;;3.80;;
26303;SDS011;70693;48.680;8.890;2023-07-24T14:10:24;6.03;;;4.05;;
26303;SDS011;70693;48.680;8.890;2023-07-24T14:12:49;4.05;;;3.35;;
26303;SDS011;70693;48.680;8.890;2023-07-24T14:15:15;4.53;;;3.65;;
26303;SDS011;70693;48.680;8.890;2023-07-24T14:17:40;4.93;;;3.95;;
26303;SDS011;70693;48.680;8.890;2023-07-24T14:20:06;5.00;;;3.72;;
26303;SDS011;70693;48.680;8.890;2023-07-24T14:22:32;5.10;;;4.00;;
26303;SDS011;70693;48.680;8.890;2023-07-24T14:24:58;5.45;;;4.10;;
26303;SDS011;70693;48.680;8.890;2023-07-24T14:27:23;4.25;;;3.40;;
26303;SDS011;70693;48.680;8.890;2023-07-24T14:29:49;5.03;;;3.78;;
26303;SDS011;70693;48.680;8.890;2023-07-24T14:32:15;5.07;;;3.60;;
26303;SDS011;70693;48.680;8.890;2023-07-24T14:34:40;5.18;;;3.67;;
26303;SDS011;70693;48.680;8.890;2023-07-24T14:37:06;5.20;;;4.07;;
26303;SDS011;70693;48.680;8.890;2023-07-24T14:39:32;5.75;;;4.43;;
26303;SDS011;70693;48.680;8.890;2023-07-24T14:41:58;5.50;;;4.18;;
26303;SDS011;70693;48.680;8.890;2023-07-24T14:44:25;5.07;;;3.97;;
26303;SDS011;70693;48.680;8.890;2023-07-24T14:46:50;4.97;;;3.80;;
26303;SDS011;70693;48.680;8.890;2023-07-24T14:49:16;4.95;;;3.80;;
26303;SDS011;70693;48.680;8.890;2023-07-24T14:51:42;4.68;;;3.88;;